createdAt,value
2022-12-23T00:00:08.718Z,94208.97
2022-12-23T00:02:35.255Z,94206.63
2022-12-23T00:05:01.892Z,94199.06
2022-12-23T00:07:28.301Z,94219.81
2022-12-23T00:09:54.755Z,94198.81
2022-12-23T00:12:21.173Z,94210.72
2022-12-23T00:14:47.599Z,94209.72
2022-12-23T00:17:29.161Z,94203.44
2022-12-23T00:19:55.631Z,94211.72
2022-12-23T00:22:22.045Z,94218.44
2022-12-23T00:24:49.666Z,94220.38
2022-12-23T00:27:16.068Z,94209.50
2022-12-23T00:29:42.479Z,94182.19
2022-12-23T00:32:09.057Z,94202.09
2022-12-23T00:34:35.542Z,94181.34
2022-12-23T00:37:01.973Z,94193.84
2022-12-23T00:39:28.364Z,94194.66
2022-12-23T00:41:54.782Z,94187.56
2022-12-23T00:44:21.235Z,94184.94
2022-12-23T00:46:47.628Z,94183.91
2022-12-23T00:49:14.043Z,94193.94
2022-12-23T00:51:40.491Z,94204.13
2022-12-23T00:54:06.892Z,94183.47
2022-12-23T00:56:33.327Z,94193.22
2022-12-23T00:58:59.730Z,94185.59
2022-12-23T01:01:26.256Z,94166.03
2022-12-23T01:03:52.758Z,94178.41
2022-12-23T01:06:19.212Z,94187.69
2022-12-23T01:08:45.628Z,94193.59
2022-12-23T01:11:12.027Z,94196.06
2022-12-23T01:13:38.416Z,94203.78
2022-12-23T01:16:04.993Z,94199.50
2022-12-23T01:18:31.499Z,94206.72
2022-12-23T01:20:57.907Z,94204.19
2022-12-23T01:23:24.391Z,94203.63
2022-12-23T01:25:50.778Z,94213.38
2022-12-23T01:28:17.195Z,94216.66
2022-12-23T01:30:43.579Z,94227.22
2022-12-23T01:33:09.953Z,94234.31
2022-12-23T01:35:36.355Z,94240.25
2022-12-23T01:38:02.750Z,94227.03
2022-12-23T01:40:29.168Z,94239.41
2022-12-23T01:42:55.547Z,94231.66
2022-12-23T01:45:21.958Z,94233.94
2022-12-23T01:47:48.355Z,94239.03
2022-12-23T01:50:14.761Z,94223.75
2022-12-23T01:52:41.191Z,94219.56
2022-12-23T01:55:07.566Z,94222.56
2022-12-23T01:57:34.014Z,94231.94
2022-12-23T02:00:00.584Z,94224.03
2022-12-23T02:02:27.156Z,94221.84
2022-12-23T02:04:53.739Z,94213.56
2022-12-23T02:07:20.187Z,94225.50
2022-12-23T02:09:46.627Z,94218.19
2022-12-23T02:12:13.068Z,94224.31
2022-12-23T02:14:39.498Z,94224.13
2022-12-23T02:17:06.013Z,94217.66
2022-12-23T02:19:32.461Z,94202.28
2022-12-23T02:21:58.864Z,94213.31
2022-12-23T02:24:25.493Z,94199.94
2022-12-23T02:26:51.889Z,94197.75
2022-12-23T02:29:18.315Z,94202.84
2022-12-23T02:31:44.780Z,94215.97
2022-12-23T02:34:11.174Z,94207.47
2022-12-23T02:36:37.605Z,94213.75
2022-12-23T02:39:04.168Z,94214.59
2022-12-23T02:41:30.564Z,94202.19
2022-12-23T02:43:57.023Z,94226.06
2022-12-23T02:46:23.510Z,94226.72
2022-12-23T02:48:49.972Z,94222.88
2022-12-23T02:51:16.404Z,94242.47
2022-12-23T02:53:42.847Z,94244.94
2022-12-23T02:56:09.289Z,94232.16
2022-12-23T02:58:35.692Z,94225.25
2022-12-23T03:01:02.161Z,94211.88
2022-12-23T03:03:28.665Z,94212.88
2022-12-23T03:05:55.230Z,94220.13
2022-12-23T03:08:21.650Z,94221.44
2022-12-23T03:10:48.098Z,94223.44
2022-12-23T03:13:14.515Z,94222.59
2022-12-23T03:15:41.027Z,94218.69
2022-12-23T03:18:07.525Z,94220.97
2022-12-23T03:20:33.944Z,94215.94
2022-12-23T03:23:00.383Z,94220.06
2022-12-23T03:25:26.809Z,94223.53
2022-12-23T03:27:53.215Z,94226.59
2022-12-23T03:30:19.655Z,94236.56
2022-12-23T03:32:46.063Z,94221.16
2022-12-23T03:35:12.506Z,94218.16
2022-12-23T03:37:38.902Z,94206.75
2022-12-23T03:40:05.314Z,94198.09
2022-12-23T03:42:31.847Z,94206.22
2022-12-23T03:45:28.403Z,94206.03
2022-12-23T03:47:44.668Z,94216.41
2022-12-23T03:50:11.055Z,94205.81
2022-12-23T03:52:37.495Z,94210.94
2022-12-23T03:55:03.937Z,94199.97
2022-12-23T03:57:30.331Z,94207.91
2022-12-23T03:59:56.718Z,94211.47
2022-12-23T04:02:23.326Z,94201.88
2022-12-23T04:04:49.884Z,94207.81
2022-12-23T04:07:16.320Z,94205.63
2022-12-23T04:09:42.724Z,94207.25
2022-12-23T04:12:09.174Z,94217.00
2022-12-23T04:14:35.619Z,94205.81
2022-12-23T04:17:02.152Z,94204.44
2022-12-23T04:19:28.558Z,94220.47
2022-12-23T04:21:54.957Z,94213.53
2022-12-23T04:24:21.386Z,94213.53
2022-12-23T04:26:47.835Z,94214.56
2022-12-23T04:29:14.264Z,94213.63
2022-12-23T04:31:40.751Z,94218.91
2022-12-23T04:34:07.251Z,94205.53
2022-12-23T04:36:33.712Z,94208.34
2022-12-23T04:39:00.145Z,94210.97
2022-12-23T04:41:26.581Z,94216.19
2022-12-23T04:43:53.654Z,94214.53
2022-12-23T04:46:20.187Z,94213.88
2022-12-23T04:48:46.664Z,94205.97
2022-12-23T04:51:13.111Z,94199.22
2022-12-23T04:53:39.559Z,94204.31
2022-12-23T04:56:06.005Z,94212.44
2022-12-23T04:58:32.431Z,94202.88
2022-12-23T05:00:58.896Z,94205.69
2022-12-23T05:03:25.340Z,94204.13
2022-12-23T05:05:51.833Z,94208.81
2022-12-23T05:08:18.275Z,94197.59
2022-12-23T05:10:44.703Z,94207.53
2022-12-23T05:13:11.121Z,94206.97
2022-12-23T05:15:37.527Z,94208.16
2022-12-23T05:18:03.920Z,94228.94
2022-12-23T05:20:30.341Z,94221.28
2022-12-23T05:22:56.758Z,94209.72
2022-12-23T05:25:23.189Z,94219.66
2022-12-23T05:27:49.633Z,94206.09
2022-12-23T05:30:16.110Z,94225.59
2022-12-23T05:32:42.511Z,94216.09
2022-12-23T05:35:08.975Z,94221.72
2022-12-23T05:37:35.420Z,94217.09
2022-12-23T05:40:01.857Z,94201.41
2022-12-23T05:42:28.624Z,94197.78
2022-12-23T05:44:55.051Z,94193.94
2022-12-23T05:47:21.464Z,94198.41
2022-12-23T05:49:47.854Z,94189.22
2022-12-23T05:52:14.270Z,94197.50
2022-12-23T05:54:40.672Z,94187.19
2022-12-23T05:57:07.295Z,94178.84
2022-12-23T05:59:33.746Z,94189.75
2022-12-23T06:02:00.507Z,94193.47
2022-12-23T06:04:27.101Z,94196.34
2022-12-23T06:06:53.602Z,94177.63
2022-12-23T06:09:20.051Z,94195.13
2022-12-23T06:11:46.476Z,94189.03
2022-12-23T06:14:12.930Z,94191.22
2022-12-23T06:16:39.364Z,94183.94
2022-12-23T06:19:05.841Z,94185.94
2022-12-23T06:21:32.262Z,94189.03
2022-12-23T06:23:58.694Z,94175.88
2022-12-23T06:26:25.100Z,94194.13
2022-12-23T06:28:51.535Z,94191.91
2022-12-23T06:31:18.070Z,94193.22
2022-12-23T06:33:44.507Z,94204.78
2022-12-23T06:36:11.013Z,94222.19
2022-12-23T06:38:37.453Z,94215.91
2022-12-23T06:41:03.893Z,94222.03
2022-12-23T06:43:30.332Z,94216.91
2022-12-23T06:45:56.810Z,94210.41
2022-12-23T06:48:23.301Z,94217.75
2022-12-23T06:50:49.741Z,94213.81
2022-12-23T06:53:16.141Z,94220.72
2022-12-23T06:55:42.574Z,94240.22
2022-12-23T06:58:08.984Z,94236.03
2022-12-23T07:00:35.388Z,94241.13
2022-12-23T07:03:01.861Z,94239.78
2022-12-23T07:05:33.382Z,94249.91
2022-12-23T07:08:03.403Z,94251.38
2022-12-23T07:10:29.884Z,94248.06
2022-12-23T07:12:56.350Z,94240.41
2022-12-23T07:15:22.767Z,94254.44
2022-12-23T07:17:49.202Z,94259.56
2022-12-23T07:20:15.642Z,94252.63
2022-12-23T07:22:42.085Z,94256.53
2022-12-23T07:25:08.539Z,94261.06
2022-12-23T07:27:35.051Z,94266.00
2022-12-23T07:30:01.500Z,94274.13
2022-12-23T07:32:27.924Z,94274.13
2022-12-23T07:34:54.327Z,94272.13
2022-12-23T07:37:20.745Z,94260.78
2022-12-23T07:39:47.184Z,94263.63
2022-12-23T07:42:43.588Z,94274.19
2022-12-23T07:45:00.034Z,94274.94
2022-12-23T07:47:26.494Z,94268.91
2022-12-23T07:49:54.219Z,94282.13
2022-12-23T07:52:20.699Z,94280.91
2022-12-23T07:54:47.422Z,94285.03
2022-12-23T07:57:15.011Z,94281.81
2022-12-23T07:59:41.428Z,94287.94
2022-12-23T08:02:08.395Z,94281.81
2022-12-23T08:04:42.534Z,94272.16
2022-12-23T08:07:12.624Z,94276.06
2022-12-23T08:09:39.201Z,94269.59
2022-12-23T08:12:05.843Z,94279.13
2022-12-23T08:14:32.839Z,94275.31
2022-12-23T08:16:59.819Z,94271.00
2022-12-23T08:19:26.658Z,94264.16
2022-12-23T08:21:53.325Z,94250.75
2022-12-23T08:24:21.023Z,94254.03
2022-12-23T08:26:47.626Z,94265.63
2022-12-23T08:29:14.495Z,94289.88
2022-12-23T08:31:41.800Z,94284.22
2022-12-23T08:34:08.411Z,94293.75
2022-12-23T08:36:34.893Z,94268.59
2022-12-23T08:39:01.400Z,94272.22
2022-12-23T08:41:27.833Z,94275.13
2022-12-23T08:43:54.272Z,94275.97
2022-12-23T08:46:20.845Z,94277.78
2022-12-23T08:48:49.687Z,94282.31
2022-12-23T08:51:16.512Z,94291.16
2022-12-23T08:53:42.954Z,94278.91
2022-12-23T08:56:09.429Z,94293.84
2022-12-23T08:58:35.905Z,94278.69
2022-12-23T09:01:03.152Z,94284.88
2022-12-23T09:03:30.866Z,94269.41
2022-12-23T09:05:57.477Z,94268.22
2022-12-23T09:08:23.934Z,94267.56
2022-12-23T09:10:50.404Z,94283.88
2022-12-23T09:13:26.353Z,94290.47
2022-12-23T09:15:58.243Z,94285.16
2022-12-23T09:18:25.777Z,94297.13
2022-12-23T09:20:52.420Z,94306.91
2022-12-23T09:23:18.829Z,94306.91
2022-12-23T09:25:45.307Z,94299.19
2022-12-23T09:28:11.724Z,94313.41
2022-12-23T09:30:38.155Z,94312.59
2022-12-23T09:33:05.458Z,94311.94
2022-12-23T09:35:32.061Z,94298.13
2022-12-23T09:37:59.690Z,94298.13
2022-12-23T09:40:26.141Z,94304.91
2022-12-23T09:42:52.949Z,94312.84
2022-12-23T09:45:20.473Z,94320.59
2022-12-23T09:47:47.069Z,94313.91
2022-12-23T09:50:14.676Z,94307.66
2022-12-23T09:52:42.250Z,94301.22
2022-12-23T09:55:08.662Z,94301.91
2022-12-23T09:57:35.439Z,94295.56
2022-12-23T10:00:02.204Z,94297.78
2022-12-23T10:02:29.907Z,94295.13
2022-12-23T10:04:56.474Z,94296.19
2022-12-23T10:07:23.933Z,94287.59
2022-12-23T10:09:51.516Z,94297.19
2022-12-23T10:12:23.598Z,94295.38
2022-12-23T10:14:53.954Z,94289.91
2022-12-23T10:17:21.307Z,94290.25
2022-12-23T10:19:47.770Z,94278.25
2022-12-23T10:22:14.486Z,94285.38
2022-12-23T10:24:41.188Z,94286.31
2022-12-23T10:27:08.684Z,94292.00
2022-12-23T10:29:35.761Z,94289.53
2022-12-23T10:32:02.249Z,94302.16
2022-12-23T10:34:33.462Z,94288.66
2022-12-23T10:37:03.218Z,94298.66
2022-12-23T10:39:29.775Z,94293.53
2022-12-23T10:41:57.285Z,94287.59
2022-12-23T10:44:23.912Z,94291.94
2022-12-23T10:46:50.425Z,94295.38
2022-12-23T10:49:16.953Z,94284.34
2022-12-23T10:51:43.379Z,94295.56
2022-12-23T10:54:09.821Z,94279.66
2022-12-23T10:56:36.232Z,94287.84
2022-12-23T10:59:03.476Z,94289.13
2022-12-23T11:01:30.221Z,94293.53
2022-12-23T11:03:57.754Z,94285.16
2022-12-23T11:06:24.197Z,94290.25
2022-12-23T11:08:50.907Z,94290.00
2022-12-23T11:11:17.549Z,94278.81
2022-12-23T11:13:44.185Z,94284.22
2022-12-23T11:16:10.714Z,94289.53
2022-12-23T11:18:41.891Z,94299.94
2022-12-23T11:21:08.630Z,94285.88
2022-12-23T11:23:35.753Z,94286.06
2022-12-23T11:26:04.433Z,94294.56
2022-12-23T11:28:31.118Z,94304.59
2022-12-23T11:30:57.643Z,94285.22
2022-12-23T11:33:24.474Z,94287.06
2022-12-23T11:35:50.954Z,94302.34
2022-12-23T11:38:17.666Z,94285.63
2022-12-23T11:40:44.147Z,94297.03
2022-12-23T11:43:10.741Z,94294.56
2022-12-23T11:45:37.491Z,94296.81
2022-12-23T11:48:06.047Z,94285.00
2022-12-23T11:50:33.665Z,94293.75
2022-12-23T11:53:00.290Z,94283.16
2022-12-23T11:55:26.956Z,94289.28
2022-12-23T11:57:56.066Z,94280.94
2022-12-23T12:00:23.131Z,94307.38
2022-12-23T12:02:49.901Z,94284.06
2022-12-23T12:05:17.437Z,94277.03
2022-12-23T12:07:45.035Z,94275.22
2022-12-23T12:10:11.644Z,94267.09
2022-12-23T12:12:38.213Z,94272.97
2022-12-23T12:15:04.715Z,94248.56
2022-12-23T12:17:31.187Z,94254.84
2022-12-23T12:19:57.635Z,94263.16
2022-12-23T12:22:24.084Z,94262.56
2022-12-23T12:24:51.160Z,94279.44
2022-12-23T12:27:18.768Z,94268.47
2022-12-23T12:29:45.370Z,94262.81
2022-12-23T12:32:13.107Z,94274.34
2022-12-23T12:34:39.691Z,94273.22
2022-12-23T12:37:07.300Z,94249.88
2022-12-23T12:39:34.905Z,94262.66
2022-12-23T12:42:05.861Z,94254.09
2022-12-23T12:44:33.105Z,94257.28
2022-12-23T12:46:59.653Z,94258.09
2022-12-23T12:49:26.306Z,94244.88
2022-12-23T12:51:52.900Z,94235.75
2022-12-23T12:54:19.349Z,94228.81
2022-12-23T12:56:47.103Z,94232.47
2022-12-23T12:59:15.695Z,94240.59
2022-12-23T13:01:43.348Z,94231.28
2022-12-23T13:04:11.889Z,94223.16
2022-12-23T13:06:39.479Z,94212.34
2022-12-23T13:09:08.715Z,94226.81
2022-12-23T13:11:35.690Z,94212.34
2022-12-23T13:14:03.270Z,94222.31
2022-12-23T13:16:29.995Z,94239.28
2022-12-23T13:18:57.567Z,94247.84
2022-12-23T13:21:24.582Z,94258.81
2022-12-23T13:23:51.104Z,94260.09
2022-12-23T13:26:17.580Z,94260.91
2022-12-23T13:28:44.576Z,94247.84
2022-12-23T13:31:11.363Z,94261.56
2022-12-23T13:33:38.045Z,94264.56
2022-12-23T13:36:06.366Z,94244.03
2022-12-23T13:38:34.820Z,94256.88
2022-12-23T13:41:02.633Z,94253.41
2022-12-23T13:43:29.681Z,94251.81
2022-12-23T13:45:56.523Z,94257.88
2022-12-23T13:48:27.063Z,94256.88
2022-12-23T13:50:54.322Z,94265.44
2022-12-23T13:53:21.841Z,94261.91
2022-12-23T13:55:48.857Z,94266.84
2022-12-23T13:58:16.016Z,94268.91
2022-12-23T14:00:43.762Z,94263.81
2022-12-23T14:03:11.000Z,94268.91
2022-12-23T14:05:39.812Z,94265.63
2022-12-23T14:08:06.487Z,94255.22
2022-12-23T14:10:34.078Z,94264.63
2022-12-23T14:13:00.692Z,94267.22
2022-12-23T14:15:27.310Z,94274.78
2022-12-23T14:17:54.960Z,94281.91
2022-12-23T14:20:24.129Z,94277.63
2022-12-23T14:22:50.660Z,94275.97
2022-12-23T14:25:17.162Z,94275.78
2022-12-23T14:27:43.620Z,94277.22
2022-12-23T14:30:10.077Z,94265.03
2022-12-23T14:32:37.455Z,94270.75
2022-12-23T14:35:04.087Z,94273.16
2022-12-23T14:37:31.676Z,94274.34
2022-12-23T14:39:58.279Z,94271.88
2022-12-23T14:42:24.865Z,94275.31
2022-12-23T14:44:51.894Z,94277.63
2022-12-23T14:47:22.661Z,94285.81
2022-12-23T14:49:49.690Z,94266.44
2022-12-23T14:52:18.297Z,94271.94
2022-12-23T14:55:06.075Z,94277.81
2022-12-23T14:57:33.788Z,94277.16
2022-12-23T15:00:00.367Z,94288.53
2022-12-23T15:02:26.840Z,94283.22
2022-12-23T15:04:54.358Z,94280.44
2022-12-23T15:07:22.975Z,94285.47
2022-12-23T15:09:49.577Z,94286.41
2022-12-23T15:12:16.210Z,94284.56
2022-12-23T15:14:42.806Z,94287.59
2022-12-23T15:17:10.390Z,94276.56
2022-12-23T15:19:39.923Z,94284.97
2022-12-23T15:22:17.239Z,94291.50
2022-12-23T15:24:49.850Z,94295.81
2022-12-23T15:27:32.104Z,94293.91
2022-12-23T15:30:05.147Z,94288.69
2022-12-23T15:32:32.244Z,94280.56
2022-12-23T15:34:58.868Z,94294.97
2022-12-23T15:37:25.494Z,94307.56
2022-12-23T15:40:03.467Z,94283.09
2022-12-23T15:42:33.813Z,94303.34
2022-12-23T15:45:01.419Z,94295.88
2022-12-23T15:47:27.998Z,94304.16
2022-12-23T15:49:55.630Z,94318.44
2022-12-23T15:52:22.212Z,94309.28
2022-12-23T15:54:49.807Z,94307.22
2022-12-23T15:57:17.396Z,94289.13
2022-12-23T15:59:44.002Z,94293.78
2022-12-23T16:02:40.523Z,94300.28
2022-12-23T16:04:58.397Z,94310.09
2022-12-23T16:07:24.823Z,94303.28
2022-12-23T16:09:51.709Z,94314.03
2022-12-23T16:12:18.306Z,94310.94
2022-12-23T16:14:45.901Z,94312.75
2022-12-23T16:17:13.534Z,94294.66
2022-12-23T16:19:41.106Z,94298.34
2022-12-23T16:22:08.710Z,94298.81
2022-12-23T16:24:35.213Z,94296.16
2022-12-23T16:27:01.617Z,94297.69
2022-12-23T16:29:28.029Z,94291.03
2022-12-23T16:32:01.243Z,94294.50
2022-12-23T16:34:29.831Z,94300.81
2022-12-23T16:36:56.287Z,94298.81
2022-12-23T16:39:22.745Z,94287.00
2022-12-23T16:41:49.308Z,94289.03
2022-12-23T16:44:16.417Z,94283.91
2022-12-23T16:46:44.048Z,94286.38
2022-12-23T16:49:10.693Z,94284.34
2022-12-23T16:51:38.234Z,94283.81
2022-12-23T16:54:04.659Z,94288.63
2022-12-23T16:56:31.130Z,94299.22
2022-12-23T16:58:57.559Z,94294.56
2022-12-23T17:01:24.097Z,94294.56
2022-12-23T17:03:50.617Z,94292.75
2022-12-23T17:06:17.090Z,94286.00
2022-12-23T17:08:43.543Z,94280.50
2022-12-23T17:11:10.094Z,94282.72
2022-12-23T17:13:38.570Z,94294.31
2022-12-23T17:16:06.190Z,94300.44
2022-12-23T17:18:33.759Z,94296.16
2022-12-23T17:21:01.363Z,94292.09
2022-12-23T17:23:27.851Z,94273.00
2022-12-23T17:25:54.293Z,94304.09
2022-12-23T17:28:21.123Z,94291.84
2022-12-23T17:30:47.710Z,94293.69
2022-12-23T17:33:15.322Z,94305.47
2022-12-23T17:35:41.775Z,94308.28
2022-12-23T17:38:08.522Z,94304.41
2022-12-23T17:40:35.118Z,94306.28
2022-12-23T17:43:01.579Z,94304.38
2022-12-23T17:45:28.330Z,94292.41
2022-12-23T17:47:56.904Z,94302.00
2022-12-23T17:50:23.373Z,94324.34
2022-12-23T17:52:50.089Z,94309.28
2022-12-23T17:55:17.686Z,94325.34
2022-12-23T17:57:45.279Z,94307.47
2022-12-23T18:00:11.864Z,94310.28
2022-12-23T18:02:38.740Z,94327.19
2022-12-23T18:05:06.062Z,94311.94
2022-12-23T18:07:32.633Z,94332.56
2022-12-23T18:09:59.235Z,94347.00
2022-12-23T18:12:25.840Z,94356.22
2022-12-23T18:14:52.465Z,94362.06
2022-12-23T18:17:20.038Z,94373.47
2022-12-23T18:19:46.659Z,94373.34
2022-12-23T18:22:13.252Z,94365.16
2022-12-23T18:24:39.936Z,94369.75
2022-12-23T18:27:07.411Z,94376.09
2022-12-23T18:29:34.049Z,94364.22
2022-12-23T18:32:01.684Z,94377.47
2022-12-23T18:34:29.220Z,94372.81
2022-12-23T18:36:55.889Z,94371.16
2022-12-23T18:39:23.411Z,94379.38
2022-12-23T18:41:50.030Z,94380.41
2022-12-23T18:44:17.599Z,94379.22
2022-12-23T18:46:45.284Z,94393.63
2022-12-23T18:49:12.786Z,94386.88
2022-12-23T18:51:39.384Z,94382.16
2022-12-23T18:54:05.984Z,94388.44
2022-12-23T18:56:32.858Z,94399.03
2022-12-23T18:59:00.167Z,94381.91
2022-12-23T19:01:26.777Z,94383.97
2022-12-23T19:03:53.301Z,94383.50
2022-12-23T19:06:19.799Z,94375.22
2022-12-23T19:08:46.906Z,94384.16
2022-12-23T19:11:14.159Z,94367.84
2022-12-23T19:13:41.747Z,94361.53
2022-12-23T19:16:08.389Z,94366.44
2022-12-23T19:18:34.921Z,94378.50
2022-12-23T19:21:03.523Z,94382.31
2022-12-23T19:23:30.101Z,94380.94
2022-12-23T19:25:57.700Z,94391.34
2022-12-23T19:28:25.328Z,94376.72
2022-12-23T19:30:53.017Z,94379.50
2022-12-23T19:33:20.510Z,94390.53
2022-12-23T19:35:47.159Z,94392.34
2022-12-23T19:38:13.754Z,94347.91
2022-12-23T19:40:41.344Z,94397.56
2022-12-23T19:43:08.949Z,94393.56
2022-12-23T19:45:36.564Z,94407.97
2022-12-23T19:48:04.142Z,94425.84
2022-12-23T19:50:30.748Z,94420.38
2022-12-23T19:52:58.320Z,94427.06
2022-12-23T19:55:24.948Z,94425.25
2022-12-23T19:57:52.517Z,94442.13
2022-12-23T20:00:20.107Z,94434.63
2022-12-23T20:02:46.615Z,94436.91
2022-12-23T20:05:13.119Z,94434.09
2022-12-23T20:07:39.570Z,94418.22
2022-12-23T20:10:06.107Z,94407.16
2022-12-23T20:12:32.579Z,94396.38
2022-12-23T20:14:59.032Z,94411.88
2022-12-23T20:17:25.500Z,94408.78
2022-12-23T20:19:52.034Z,94393.75
2022-12-23T20:22:19.448Z,94399.59
2022-12-23T20:24:47.061Z,94406.31
2022-12-23T20:27:16.084Z,94396.94
2022-12-23T20:29:44.263Z,94402.84
2022-12-23T20:32:10.899Z,94397.56
2022-12-23T20:34:39.889Z,94417.13
2022-12-23T20:37:07.110Z,94410.19
2022-12-23T20:39:34.697Z,94403.06
2022-12-23T20:42:02.229Z,94391.09
2022-12-23T20:44:35.103Z,94402.31
2022-12-23T20:47:03.553Z,94396.38
2022-12-23T20:49:31.080Z,94379.13
2022-12-23T20:51:57.701Z,94379.94
2022-12-23T20:54:31.570Z,94381.75
2022-12-23T20:57:00.007Z,94384.22
2022-12-23T20:59:26.599Z,94387.88
2022-12-23T21:01:54.218Z,94383.06
2022-12-23T21:04:21.757Z,94391.16
2022-12-23T21:06:48.397Z,94396.94
2022-12-23T21:09:14.865Z,94397.28
2022-12-23T21:11:41.316Z,94387.31
2022-12-23T21:14:08.056Z,94385.53
2022-12-23T21:16:34.932Z,94391.78
2022-12-23T21:19:01.492Z,94401.41
2022-12-23T21:21:29.042Z,94391.00
2022-12-23T21:23:55.676Z,94416.09
2022-12-23T21:26:22.250Z,94404.03
2022-12-23T21:28:48.872Z,94415.00
2022-12-23T21:31:15.613Z,94415.47
2022-12-23T21:33:43.154Z,94408.69
2022-12-23T21:36:11.708Z,94418.25
2022-12-23T21:38:40.213Z,94436.63
2022-12-23T21:41:06.729Z,94426.41
2022-12-23T21:43:34.037Z,94429.88
2022-12-23T21:46:02.654Z,94434.34
2022-12-23T21:48:30.274Z,94444.94
2022-12-23T21:50:58.910Z,94431.88
2022-12-23T21:53:26.504Z,94422.94
2022-12-23T21:55:54.117Z,94427.59
2022-12-23T21:58:20.761Z,94433.53
2022-12-23T22:00:48.373Z,94423.94
2022-12-23T22:03:15.948Z,94421.28
2022-12-23T22:05:42.623Z,94431.50
2022-12-23T22:08:09.233Z,94433.53
2022-12-23T22:10:36.808Z,94445.13
2022-12-23T22:13:05.493Z,94446.59
2022-12-23T22:15:34.479Z,94445.28
2022-12-23T22:18:01.646Z,94449.75
2022-12-23T22:20:29.227Z,94454.22
2022-12-23T22:22:55.840Z,94455.25
2022-12-23T22:25:22.466Z,94453.22
2022-12-23T22:27:49.068Z,94450.78
2022-12-23T22:30:15.930Z,94448.75
2022-12-23T22:32:42.821Z,94451.22
2022-12-23T22:35:09.393Z,94453.22
2022-12-23T22:37:35.856Z,94445.66
2022-12-23T22:40:03.096Z,94450.41
2022-12-23T22:42:30.683Z,94455.81
2022-12-23T22:44:58.311Z,94452.78
2022-12-23T22:47:26.893Z,94457.63
2022-12-23T22:49:54.489Z,94460.56
2022-12-23T22:52:21.154Z,94460.16
2022-12-23T22:54:48.749Z,94459.41
2022-12-23T22:57:17.532Z,94463.47
2022-12-23T22:59:44.920Z,94457.69
2022-12-23T23:02:13.584Z,94466.69
2022-12-23T23:04:41.133Z,94459.53
2022-12-23T23:07:07.731Z,94464.81
2022-12-23T23:09:36.360Z,94463.66
2022-12-23T23:12:03.969Z,94468.94
2022-12-23T23:14:31.536Z,94465.59
2022-12-23T23:16:58.196Z,94481.19
2022-12-23T23:19:24.783Z,94485.47
2022-12-23T23:21:51.265Z,94495.59
2022-12-23T23:24:17.905Z,94495.59
2022-12-23T23:26:45.523Z,94490.94
2022-12-23T23:29:12.127Z,94484.00
2022-12-23T23:31:42.261Z,94475.41
2022-12-23T23:34:10.335Z,94472.41
2022-12-23T23:36:36.963Z,94465.47
2022-12-23T23:39:04.502Z,94470.75
2022-12-23T23:41:32.109Z,94474.22
2022-12-23T23:43:58.701Z,94478.06
2022-12-23T23:46:25.368Z,94505.81
2022-12-23T23:48:53.891Z,94509.09
2022-12-23T23:51:21.497Z,94508.47
2022-12-23T23:53:48.104Z,94500.31
2022-12-23T23:56:16.365Z,94502.63
2022-12-23T23:58:45.353Z,94507.47
